createdAt,value
2023-01-05T00:01:58.964Z,9.26
2023-01-05T00:06:10.573Z,9.32
2023-01-05T00:10:33.218Z,9.24
2023-01-05T00:14:54.392Z,9.26
2023-01-05T00:19:16.070Z,9.24
2023-01-05T00:23:19.827Z,9.21
2023-01-05T00:27:22.187Z,9.14
2023-01-05T00:31:25.005Z,9.20
2023-01-05T00:35:28.978Z,9.22
2023-01-05T00:39:31.250Z,9.37
2023-01-05T00:43:35.121Z,9.38
2023-01-05T00:47:39.394Z,9.39
2023-01-05T00:51:43.173Z,9.25
2023-01-05T00:55:45.965Z,9.17
2023-01-05T00:59:48.554Z,9.17
2023-01-05T01:03:53.901Z,9.20
2023-01-05T01:07:59.594Z,9.19
2023-01-05T01:12:02.302Z,9.17
2023-01-05T01:16:14.226Z,9.01
2023-01-05T01:20:16.817Z,9.08
2023-01-05T01:24:24.993Z,9.07
2023-01-05T01:28:27.283Z,9.15
2023-01-05T01:32:29.614Z,9.30
2023-01-05T01:36:32.640Z,9.48
2023-01-05T01:40:43.082Z,9.64
2023-01-05T01:44:57.412Z,9.73
2023-01-05T01:49:11.576Z,9.71
2023-01-05T01:53:38.492Z,9.75
2023-01-05T01:57:43.229Z,9.79
2023-01-05T02:01:46.867Z,9.88
2023-01-05T02:05:49.179Z,9.83
2023-01-05T02:09:51.608Z,9.50
2023-01-05T02:14:18.619Z,9.52
2023-01-05T02:18:46.626Z,9.76
2023-01-05T02:23:08.541Z,9.85
2023-01-05T02:27:34.443Z,9.91
2023-01-05T02:31:57.826Z,9.84
2023-01-05T02:36:24.953Z,9.95
2023-01-05T02:40:39.872Z,9.99
2023-01-05T02:44:42.512Z,10.05
2023-01-05T02:48:48.362Z,9.97
2023-01-05T02:53:00.831Z,9.78
2023-01-05T02:57:19.745Z,9.53
2023-01-05T03:01:29.007Z,9.30
2023-01-05T03:05:57.034Z,9.27
2023-01-05T03:10:20.336Z,9.14
2023-01-05T03:14:31.486Z,9.19
2023-01-05T03:18:57.194Z,9.12
2023-01-05T03:23:21.074Z,9.14
2023-01-05T03:27:43.287Z,9.25
2023-01-05T03:32:14.983Z,9.12
2023-01-05T03:36:23.842Z,9.27
2023-01-05T03:40:31.013Z,9.29
2023-01-05T03:44:37.614Z,9.27
2023-01-05T03:48:41.082Z,9.23
2023-01-05T03:52:43.449Z,9.16
2023-01-05T03:56:48.335Z,9.13
2023-01-05T04:00:50.930Z,9.12
2023-01-05T04:04:56.699Z,9.13
2023-01-05T04:08:59.306Z,9.06
2023-01-05T04:13:03.008Z,9.13
2023-01-05T04:17:05.874Z,9.10
2023-01-05T04:21:08.604Z,9.25
2023-01-05T04:25:12.168Z,9.20
2023-01-05T04:29:18.097Z,9.33
2023-01-05T04:33:25.037Z,9.39
2023-01-05T04:37:28.460Z,9.58
2023-01-05T04:41:31.091Z,9.65
2023-01-05T04:45:34.424Z,9.69
2023-01-05T04:49:36.805Z,9.77
2023-01-05T04:53:41.008Z,9.90
2023-01-05T04:57:48.623Z,9.94
2023-01-05T05:01:53.987Z,9.97
2023-01-05T05:05:56.348Z,10.02
2023-01-05T05:10:01.865Z,10.10
2023-01-05T05:14:05.024Z,10.06
2023-01-05T05:18:09.604Z,10.04
2023-01-05T05:22:18.971Z,10.08
2023-01-05T05:26:23.713Z,9.99
2023-01-05T05:30:26.913Z,10.03
2023-01-05T05:34:29.325Z,10.09
2023-01-05T05:38:31.467Z,10.13
2023-01-05T05:42:34.265Z,10.15
2023-01-05T05:46:37.081Z,10.20
2023-01-05T05:50:39.626Z,10.17
2023-01-05T05:54:42.017Z,10.10
2023-01-05T05:58:44.321Z,10.21
2023-01-05T06:02:47.325Z,10.29
2023-01-05T06:06:50.923Z,10.24
2023-01-05T06:10:54.992Z,10.22
2023-01-05T06:19:42.373Z,9.93
2023-01-05T06:23:45.580Z,10.01
2023-01-05T06:27:47.764Z,9.92
2023-01-05T06:31:49.978Z,9.79
2023-01-05T06:35:52.777Z,9.77
2023-01-05T06:39:56.432Z,9.87
2023-01-05T06:43:58.609Z,9.87
2023-01-05T06:48:01.843Z,9.93
2023-01-05T06:52:04.192Z,9.83
2023-01-05T06:56:06.519Z,9.82
2023-01-05T07:00:11.859Z,9.75
2023-01-05T07:04:15.756Z,9.84
2023-01-05T07:08:18.119Z,9.82
2023-01-05T07:12:20.822Z,9.91
2023-01-05T07:16:23.406Z,9.96
2023-01-05T07:20:25.632Z,10.00
2023-01-05T07:24:27.893Z,10.01
2023-01-05T07:28:30.739Z,9.82
2023-01-05T07:32:32.925Z,9.83
2023-01-05T07:36:35.814Z,9.98
2023-01-05T07:40:38.513Z,9.99
2023-01-05T07:44:40.670Z,10.17
2023-01-05T07:48:42.900Z,10.18
2023-01-05T07:52:45.373Z,10.29
2023-01-05T07:56:47.883Z,10.50
2023-01-05T08:00:50.691Z,10.61
2023-01-05T08:04:53.723Z,10.63
2023-01-05T08:08:56.643Z,10.75
2023-01-05T08:13:25.345Z,10.88
2023-01-05T08:17:27.436Z,10.93
2023-01-05T08:21:29.641Z,11.04
2023-01-05T08:25:31.865Z,10.97
2023-01-05T08:29:34.085Z,10.81
2023-01-05T08:33:36.650Z,10.84
2023-01-05T08:37:39.741Z,10.78
2023-01-05T08:41:42.259Z,10.83
2023-01-05T08:45:50.236Z,10.92
2023-01-05T08:49:52.611Z,11.00
2023-01-05T08:53:55.356Z,11.23
2023-01-05T08:57:57.640Z,11.28
2023-01-05T09:01:59.940Z,11.24
2023-01-05T09:06:03.582Z,11.24
2023-01-05T09:10:07.721Z,11.33
2023-01-05T09:14:14.500Z,11.53
2023-01-05T09:18:16.672Z,11.79
2023-01-05T09:22:19.205Z,12.09
2023-01-05T09:26:21.509Z,12.27
2023-01-05T09:30:23.639Z,12.56
2023-01-05T09:34:26.383Z,12.70
2023-01-05T09:38:29.878Z,12.90
2023-01-05T09:42:34.278Z,13.02
2023-01-05T09:46:43.205Z,13.09
2023-01-05T09:50:48.486Z,13.07
2023-01-05T09:54:54.465Z,12.76
2023-01-05T09:59:06.473Z,12.85
2023-01-05T10:03:36.524Z,12.78
2023-01-05T10:07:54.201Z,12.90
2023-01-05T10:12:27.571Z,12.99
2023-01-05T10:16:31.343Z,13.16
2023-01-05T10:20:55.094Z,13.21
2023-01-05T10:25:15.084Z,13.50
2023-01-05T10:29:32.357Z,13.72
2023-01-05T10:33:53.577Z,13.84
2023-01-05T10:38:20.059Z,13.90
2023-01-05T10:42:39.385Z,13.72
2023-01-05T10:46:52.334Z,13.44
2023-01-05T10:50:58.068Z,13.28
2023-01-05T10:55:02.308Z,12.97
2023-01-05T10:59:11.967Z,13.02
2023-01-05T11:03:18.286Z,13.15
2023-01-05T11:07:23.945Z,13.12
2023-01-05T11:11:34.411Z,13.16
2023-01-05T11:16:04.007Z,12.92
2023-01-05T11:20:18.469Z,12.99
2023-01-05T11:29:15.197Z,13.22
2023-01-05T11:33:35.032Z,13.41
2023-01-05T11:37:47.691Z,13.20
2023-01-05T11:42:04.439Z,13.19
2023-01-05T11:46:16.233Z,13.20
2023-01-05T11:50:27.064Z,13.12
2023-01-05T11:54:43.965Z,13.00
2023-01-05T11:58:51.780Z,13.25
2023-01-05T12:03:32.316Z,13.34
2023-01-05T12:07:44.096Z,13.46
2023-01-05T12:12:07.724Z,13.24
2023-01-05T12:35:35.271Z,13.96
2023-01-05T12:59:34.048Z,14.35
2023-01-05T13:03:56.837Z,14.38
2023-01-05T13:08:35.283Z,14.44
2023-01-05T13:12:42.592Z,14.34
2023-01-05T13:26:38.338Z,14.17
2023-01-05T13:31:17.652Z,14.23
2023-01-05T13:36:13.906Z,14.17
2023-01-05T13:41:15.042Z,14.26
2023-01-05T13:51:07.621Z,14.12
2023-01-05T13:55:26.692Z,14.05
2023-01-05T13:59:46.386Z,14.12
2023-01-05T14:03:59.934Z,14.15
2023-01-05T14:08:13.014Z,14.09
2023-01-05T14:12:24.572Z,14.19
2023-01-05T14:16:41.978Z,14.11
2023-01-05T14:20:51.280Z,13.89
2023-01-05T14:24:56.214Z,13.81
2023-01-05T14:29:03.762Z,13.69
2023-01-05T14:33:13.200Z,13.51
2023-01-05T14:37:28.546Z,13.41
2023-01-05T14:41:31.843Z,13.37
2023-01-05T14:45:37.596Z,13.45
2023-01-05T14:49:54.813Z,13.44
2023-01-05T14:54:05.051Z,13.49
2023-01-05T14:58:37.186Z,13.48
2023-01-05T15:03:12.108Z,13.43
2023-01-05T15:07:42.347Z,13.37
2023-01-05T15:12:13.278Z,13.27
2023-01-05T15:16:51.737Z,13.08
2023-01-05T15:21:12.754Z,12.89
2023-01-05T15:25:25.134Z,12.77
2023-01-05T15:29:54.981Z,12.64
2023-01-05T15:34:12.602Z,12.43
2023-01-05T15:38:24.756Z,12.27
2023-01-05T15:42:37.665Z,12.09
2023-01-05T15:46:42.724Z,11.87
2023-01-05T15:50:51.320Z,11.79
2023-01-05T15:54:59.633Z,11.71
2023-01-05T15:59:04.199Z,11.64
2023-01-05T16:03:21.307Z,11.63
2023-01-05T16:07:23.942Z,11.48
2023-01-05T16:11:34.214Z,11.25
2023-01-05T16:15:38.446Z,11.03
2023-01-05T16:20:05.405Z,11.02
2023-01-05T16:24:29.629Z,10.99
2023-01-05T16:28:32.071Z,10.94
2023-01-05T16:32:39.234Z,10.90
2023-01-05T16:36:57.977Z,10.78
2023-01-05T16:41:12.748Z,10.63
2023-01-05T16:45:26.120Z,10.50
2023-01-05T16:49:41.241Z,10.39
2023-01-05T16:53:52.168Z,9.99
2023-01-05T16:57:54.627Z,9.66
2023-01-05T17:01:56.720Z,9.44
2023-01-05T17:06:01.247Z,9.45
2023-01-05T17:10:04.592Z,9.23
2023-01-05T17:14:07.609Z,9.11
2023-01-05T17:18:29.253Z,8.98
2023-01-05T17:22:31.727Z,8.69
2023-01-05T17:26:38.229Z,8.68
2023-01-05T17:30:40.352Z,8.75
2023-01-05T17:34:42.599Z,8.84
2023-01-05T17:38:46.571Z,8.93
2023-01-05T17:42:49.781Z,8.95
2023-01-05T17:46:52.208Z,8.89
2023-01-05T17:50:54.571Z,8.84
2023-01-05T17:54:56.863Z,8.84
2023-01-05T17:58:59.025Z,8.87
2023-01-05T18:03:01.777Z,8.73
2023-01-05T18:07:03.868Z,8.84
2023-01-05T18:11:07.519Z,8.75
2023-01-05T18:15:10.818Z,8.61
2023-01-05T18:23:18.167Z,8.43
2023-01-05T18:27:20.537Z,8.32
2023-01-05T18:31:22.957Z,8.10
2023-01-05T18:35:25.609Z,8.19
2023-01-05T18:39:28.183Z,8.23
2023-01-05T18:43:32.434Z,8.39
2023-01-05T18:47:35.283Z,8.39
2023-01-05T18:51:39.399Z,8.56
2023-01-05T18:55:42.712Z,8.66
2023-01-05T18:59:45.097Z,8.75
2023-01-05T19:03:47.645Z,8.64
2023-01-05T19:07:54.284Z,8.49
2023-01-05T19:11:56.492Z,8.25
2023-01-05T19:16:01.899Z,8.08
2023-01-05T19:20:04.760Z,7.97
2023-01-05T19:24:15.073Z,8.28
2023-01-05T19:28:17.476Z,8.48
2023-01-05T19:32:20.338Z,8.53
2023-01-05T19:36:24.293Z,8.69
2023-01-05T19:40:27.160Z,8.75
2023-01-05T19:44:29.521Z,8.92
2023-01-05T19:48:33.223Z,8.96
2023-01-05T19:52:35.631Z,9.03
2023-01-05T19:56:38.965Z,8.93
2023-01-05T20:00:41.210Z,9.00
2023-01-05T20:04:45.658Z,8.82
2023-01-05T20:08:52.909Z,8.71
2023-01-05T20:12:55.073Z,8.76
2023-01-05T20:17:03.388Z,8.73
2023-01-05T20:21:07.861Z,8.78
2023-01-05T20:25:11.095Z,8.81
2023-01-05T20:29:15.154Z,8.93
2023-01-05T20:33:18.370Z,9.09
2023-01-05T20:37:23.832Z,8.97
2023-01-05T20:41:37.864Z,9.00
2023-01-05T20:45:40.010Z,9.08
2023-01-05T20:49:44.713Z,9.23
2023-01-05T20:53:46.960Z,9.29
2023-01-05T20:57:51.789Z,9.38
2023-01-05T21:01:55.215Z,9.34
2023-01-05T21:05:57.899Z,9.24
2023-01-05T21:10:00.369Z,9.14
2023-01-05T21:14:03.644Z,8.92
2023-01-05T21:18:05.915Z,8.86
2023-01-05T21:22:08.115Z,8.91
2023-01-05T21:26:12.817Z,8.88
2023-01-05T21:30:16.222Z,8.86
2023-01-05T21:34:19.168Z,8.78
2023-01-05T21:38:21.451Z,8.81
2023-01-05T21:42:50.212Z,8.69
2023-01-05T21:46:52.418Z,8.70
2023-01-05T21:51:18.401Z,8.70
2023-01-05T21:55:39.187Z,8.70
2023-01-05T21:59:42.350Z,8.75
2023-01-05T22:03:44.629Z,8.72
2023-01-05T22:07:47.467Z,8.92
2023-01-05T22:11:49.776Z,9.07
2023-01-05T22:15:55.412Z,9.23
2023-01-05T22:19:59.506Z,9.36
2023-01-05T22:24:02.528Z,9.44
2023-01-05T22:28:05.599Z,9.22
2023-01-05T22:32:08.333Z,9.21
2023-01-05T22:36:12.290Z,9.26
2023-01-05T22:40:14.655Z,9.19
2023-01-05T22:44:20.957Z,9.21
2023-01-05T22:48:25.313Z,9.30
2023-01-05T22:52:27.552Z,9.34
2023-01-05T22:56:34.648Z,9.41
2023-01-05T23:00:37.361Z,9.41
2023-01-05T23:04:39.744Z,9.22
2023-01-05T23:08:43.276Z,9.15
2023-01-05T23:12:45.729Z,9.02
2023-01-05T23:16:48.870Z,9.02
2023-01-05T23:21:00.235Z,9.00
2023-01-05T23:25:02.693Z,8.93
2023-01-05T23:29:04.968Z,9.04
2023-01-05T23:33:07.338Z,9.09
2023-01-05T23:37:09.683Z,8.89
2023-01-05T23:41:13.519Z,8.93
2023-01-05T23:45:16.254Z,8.95
2023-01-05T23:49:18.784Z,8.84
2023-01-05T23:53:21.156Z,8.91
2023-01-05T23:57:24.018Z,8.79
